Time;durP1;ratioP1;P1;durP2;ratioP2;P2;SDS_P1;SDS_P2;PMS_P1;PMS_P2;Temp;Humidity;BMP_temperature;BMP_pressure;BME280_temperature;BME280_humidity;BME280_pressure;Samples;Min_cycle;Max_cycle;Signal;HPM_P1;HPM_P2
2022/06/15 00:01:13;;;;;;;8.68;3.08;;;17.10;55.30;;;;;;5053759;28;20094;-74
2022/06/15 00:03:40;;;;;;;6.40;2.80;;;17.10;55.20;;;;;;5053554;28;20104;-74
2022/06/15 00:06:17;;;;;;;8.52;3.08;;;17.10;55.20;;;;;;5053697;28;20017;-73
2022/06/15 00:08:45;;;;;;;4.45;3.00;;;17.10;55.10;;;;;;5053442;28;20486;-73
2022/06/15 00:11:15;;;;;;;7.78;3.20;;;17.00;54.90;;;;;;5053594;28;20028;-74
2022/06/15 00:13:41;;;;;;;7.72;2.67;;;17.00;54.90;;;;;;5054177;28;20047;-75
2022/06/15 00:16:07;;;;;;;5.22;2.85;;;17.10;54.90;;;;;;5036130;28;20032;-75
2022/06/15 00:18:34;;;;;;;5.45;2.72;;;17.00;55.00;;;;;;5053615;28;20037;-75
2022/06/15 00:21:00;;;;;;;5.43;2.72;;;17.00;55.90;;;;;;5053554;28;20112;-78
2022/06/15 00:23:28;;;;;;;9.30;2.55;;;17.00;55.00;;;;;;5053414;28;20021;-74
2022/06/15 00:25:53;;;;;;;4.68;2.80;;;17.00;54.70;;;;;;5053476;28;20021;-75
2022/06/15 00:28:21;;;;;;;7.80;2.97;;;17.00;54.70;;;;;;5053268;28;20040;-74
2022/06/15 00:30:49;;;;;;;5.40;2.70;;;17.00;54.50;;;;;;5053308;28;20021;-76
2022/06/15 00:33:15;;;;;;;4.88;2.50;;;16.90;54.30;;;;;;5053239;28;20072;-74
2022/06/15 00:35:41;;;;;;;6.03;2.83;;;17.00;54.20;;;;;;5053153;28;20108;-74
2022/06/15 00:38:10;;;;;;;10.02;2.92;;;16.90;55.10;;;;;;5053228;28;20115;-74
2022/06/15 00:40:35;;;;;;;5.75;2.97;;;16.90;55.10;;;;;;5053224;28;20147;-74
2022/06/15 00:43:01;;;;;;;6.93;2.47;;;16.80;55.20;;;;;;5053192;28;20111;-74
2022/06/15 00:45:27;;;;;;;6.70;2.83;;;16.70;55.00;;;;;;5052959;28;20029;-75
2022/06/15 00:47:53;;;;;;;8.68;3.30;;;16.70;55.30;;;;;;5053155;28;20078;-75
2022/06/15 00:50:23;;;;;;;5.38;2.92;;;16.70;55.40;;;;;;5052843;28;20048;-76
2022/06/15 00:52:59;;;;;;;6.68;2.63;;;16.70;56.40;;;;;;5052994;28;20063;-79
2022/06/15 00:55:31;;;;;;;7.97;3.20;;;16.60;55.50;;;;;;5052643;28;20025;-79
2022/06/15 00:58:01;;;;;;;7.50;2.97;;;16.60;55.70;;;;;;5052915;28;20025;-78
2022/06/15 01:00:27;;;;;;;7.15;3.13;;;16.60;55.50;;;;;;5053161;28;20071;-80
2022/06/15 01:02:53;;;;;;;2.97;2.67;;;16.60;55.10;;;;;;5052871;28;20029;-78
2022/06/15 01:05:47;;;;;;;7.32;2.63;;;16.70;55.20;;;;;;5052964;28;20021;-79
2022/06/15 01:08:26;;;;;;;5.97;2.80;;;16.70;55.20;;;;;;5052913;28;20025;-80
2022/06/15 01:11:13;;;;;;;5.03;3.10;;;16.60;55.40;;;;;;5053007;28;20083;-79
2022/06/15 01:13:48;;;;;;;6.25;2.65;;;16.50;56.00;;;;;;5052958;28;20021;-78
2022/06/15 01:16:41;;;;;;;4.57;2.83;;;16.50;56.20;;;;;;5057902;28;20035;-79
2022/06/15 01:19:37;;;;;;;5.97;2.95;;;16.40;56.60;;;;;;5060241;28;20029;-78
2022/06/15 01:22:25;;;;;;;6.72;2.92;;;16.50;56.80;;;;;;5052885;28;20021;-78
2022/06/15 01:25:11;;;;;;;8.05;3.15;;;16.40;56.80;;;;;;5052799;28;20025;-79
2022/06/15 01:28:23;;;;;;;9.05;3.00;;;16.50;57.00;;;;;;5052609;28;20022;-78
2022/06/15 01:30:54;;;;;;;5.30;2.50;;;16.30;57.90;;;;;;5054605;28;20108;-78
2022/06/15 01:33:34;;;;;;;6.65;3.05;;;16.10;58.00;;;;;;5056548;28;20021;-79
2022/06/15 01:36:13;;;;;;;5.60;2.65;;;16.10;57.80;;;;;;5056477;28;20025;-79
2022/06/15 01:38:48;;;;;;;6.32;2.70;;;16.10;57.80;;;;;;5056400;28;20029;-78
2022/06/15 01:41:53;;;;;;;6.32;2.67;;;16.20;57.90;;;;;;5056491;28;20025;-78
2022/06/15 01:44:39;;;;;;;6.53;3.03;;;16.10;58.10;;;;;;5056359;28;20028;-79
2022/06/15 01:47:09;;;;;;;8.07;2.90;;;16.10;58.60;;;;;;5056338;28;20027;-79
2022/06/15 01:49:59;;;;;;;6.97;3.05;;;16.00;58.60;;;;;;5056209;28;20051;-79
2022/06/15 01:52:31;;;;;;;3.92;3.05;;;16.00;58.30;;;;;;5062373;28;20061;-78
2022/06/15 01:55:06;;;;;;;6.38;3.35;;;16.00;58.40;;;;;;5070834;28;20428;-79
2022/06/15 01:57:33;;;;;;;;;;;16.00;58.40;;;;;;5058270;28;20396;-78
2022/06/15 02:00:04;;;;;;;6.18;3.00;;;16.00;58.50;;;;;;5056415;28;19911;-78
2022/06/15 02:03:08;;;;;;;6.85;3.13;;;16.00;58.80;;;;;;5056119;28;20021;-75
2022/06/15 02:05:42;;;;;;;8.27;2.97;;;16.00;59.20;;;;;;5047804;28;20037;-74
2022/06/15 02:08:20;;;;;;;8.05;3.05;;;15.90;59.90;;;;;;5056106;28;20013;-79
2022/06/15 02:11:00;;;;;;;6.43;3.30;;;15.80;60.40;;;;;;5055984;28;20033;-76
2022/06/15 02:13:35;;;;;;;8.07;3.00;;;15.70;60.50;;;;;;5055900;28;20045;-79
2022/06/15 02:16:10;;;;;;;7.80;2.92;;;15.70;60.80;;;;;;5055891;28;20029;-76
2022/06/15 02:18:37;;;;;;;4.88;3.20;;;15.70;60.30;;;;;;5055879;28;20116;-74
2022/06/15 02:21:08;;;;;;;7.68;2.88;;;15.70;60.30;;;;;;5055622;28;20444;-77
2022/06/15 02:23:37;;;;;;;5.18;3.17;;;15.60;60.80;;;;;;5055653;28;20432;-74
2022/06/15 02:26:04;;;;;;;10.65;3.38;;;15.60;61.10;;;;;;5055610;28;20441;-74
2022/06/15 02:28:35;;;;;;;10.07;3.42;;;15.60;61.20;;;;;;5055659;28;20017;-75
2022/06/15 02:31:00;;;;;;;7.13;3.67;;;15.50;61.60;;;;;;5055473;28;20112;-75
2022/06/15 02:33:30;;;;;;;9.43;2.92;;;15.40;62.30;;;;;;5055524;28;20485;-74
2022/06/15 02:35:57;;;;;;;8.02;3.50;;;15.30;62.90;;;;;;5055472;28;20021;-77
2022/06/15 02:38:24;;;;;;;4.18;2.60;;;15.30;62.90;;;;;;5055325;28;20547;-73
2022/06/15 02:40:49;;;;;;;6.15;3.30;;;15.30;63.00;;;;;;5055226;28;20525;-79
2022/06/15 02:43:19;;;;;;;6.18;3.10;;;15.30;63.50;;;;;;5054262;28;20104;-78
2022/06/15 02:45:47;;;;;;;7.25;3.05;;;15.20;63.50;;;;;;5055336;28;20083;-79
2022/06/15 02:48:15;;;;;;;5.10;3.28;;;15.20;63.50;;;;;;5037257;28;20036;-79
2022/06/15 02:50:49;;;;;;;6.80;3.10;;;15.20;63.70;;;;;;5054765;28;20068;-74
2022/06/15 02:53:18;;;;;;;7.25;3.35;;;15.10;64.00;;;;;;5055074;28;20057;-76
2022/06/15 02:55:45;;;;;;;6.13;3.20;;;15.10;64.30;;;;;;5055014;28;20062;-76
2022/06/15 02:58:15;;;;;;;6.50;3.70;;;15.00;64.60;;;;;;5054928;28;20375;-74
2022/06/15 03:00:40;;;;;;;8.02;4.00;;;14.90;65.20;;;;;;5054641;28;20051;-75
2022/06/15 03:03:07;;;;;;;9.55;4.03;;;14.90;65.80;;;;;;5054873;28;20167;-74
2022/06/15 03:05:33;;;;;;;6.47;3.60;;;14.90;65.60;;;;;;5054834;28;20028;-73
2022/06/15 03:07:58;;;;;;;6.43;4.13;;;14.80;66.00;;;;;;5054764;28;20017;-73
2022/06/15 03:10:24;;;;;;;7.47;3.35;;;14.70;66.20;;;;;;5054694;28;20113;-73
2022/06/15 03:12:49;;;;;;;6.95;3.42;;;14.70;66.20;;;;;;5054706;28;20036;-73
2022/06/15 03:15:15;;;;;;;6.93;3.45;;;14.70;66.60;;;;;;5054552;28;20025;-73
2022/06/15 03:17:41;;;;;;;5.63;3.60;;;14.60;66.50;;;;;;5054314;28;20541;-73
2022/06/15 03:20:08;;;;;;;5.57;3.50;;;14.70;66.60;;;;;;5054461;28;20024;-73
2022/06/15 03:22:34;;;;;;;5.13;3.38;;;14.80;66.60;;;;;;5054429;28;20100;-76
2022/06/15 03:25:00;;;;;;;6.90;3.33;;;14.80;66.30;;;;;;5054428;28;20505;-78
2022/06/15 03:27:25;;;;;;;8.10;3.45;;;14.80;66.20;;;;;;5054543;28;20116;-76
2022/06/15 03:29:51;;;;;;;6.25;3.65;;;14.80;66.20;;;;;;5054398;28;20053;-78
2022/06/15 03:32:17;;;;;;;9.07;4.07;;;14.70;66.60;;;;;;5054318;28;20097;-78
2022/06/15 03:34:43;;;;;;;7.45;3.20;;;14.60;67.00;;;;;;5053964;28;20534;-77
2022/06/15 03:37:09;;;;;;;8.90;4.35;;;14.60;67.30;;;;;;5053873;28;20458;-76
2022/06/15 03:39:35;;;;;;;8.02;3.45;;;14.50;67.50;;;;;;5054091;28;20021;-77
2022/06/15 03:42:13;;;;;;;6.50;3.95;;;14.50;67.80;;;;;;5054224;28;20028;-75
2022/06/15 03:44:40;;;;;;;7.20;3.47;;;14.50;67.80;;;;;;5053930;28;20057;-77
2022/06/15 03:47:12;;;;;;;9.95;3.65;;;14.50;67.80;;;;;;5053914;28;20359;-75
2022/06/15 03:49:38;;;;;;;10.40;3.67;;;14.50;68.00;;;;;;5053828;28;20051;-74
2022/06/15 03:52:04;;;;;;;5.95;3.58;;;14.60;67.60;;;;;;5053941;28;20021;-76
2022/06/15 03:54:29;;;;;;;7.97;3.63;;;14.60;67.40;;;;;;5053166;28;20033;-78
2022/06/15 03:56:55;;;;;;;5.72;3.17;;;14.80;67.40;;;;;;5053789;28;20029;-77
2022/06/15 03:59:21;;;;;;;5.75;3.10;;;14.80;66.90;;;;;;5036019;28;20459;-76
2022/06/15 04:01:47;;;;;;;7.82;3.22;;;14.90;66.70;;;;;;5053689;28;20025;-76
2022/06/15 04:04:13;;;;;;;9.50;3.78;;;15.00;66.50;;;;;;5053503;28;20405;-76
2022/06/15 04:06:38;;;;;;;5.85;3.20;;;15.00;66.10;;;;;;5053716;28;20082;-78
2022/06/15 04:09:04;;;;;;;5.60;3.72;;;15.10;65.90;;;;;;5053653;28;20099;-75
2022/06/15 04:14:14;;;;;;;9.10;3.65;;;15.10;65.70;;;;;;5053659;28;20032;-74
2022/06/15 04:16:39;;;;;;;6.38;3.60;;;15.10;65.90;;;;;;5053461;28;20021;-75
2022/06/15 04:19:07;;;;;;;5.82;3.33;;;15.10;65.90;;;;;;5072822;28;20020;-74
2022/06/15 04:21:32;;;;;;;7.50;3.53;;;15.20;65.80;;;;;;5061505;28;20025;-75
2022/06/15 04:23:58;;;;;;;8.75;3.55;;;15.10;65.80;;;;;;5053903;28;20028;-78
2022/06/15 04:26:24;;;;;;;6.30;3.85;;;15.10;65.80;;;;;;5053296;28;20032;-78
2022/06/15 04:28:49;;;;;;;5.60;3.95;;;15.10;66.00;;;;;;5053436;28;20031;-78
2022/06/15 04:31:15;;;;;;;7.35;4.07;;;15.00;66.20;;;;;;5053048;28;20104;-78
2022/06/15 04:33:41;;;;;;;7.68;3.83;;;15.00;66.30;;;;;;5053210;28;20083;-76
2022/06/15 04:36:07;;;;;;;6.97;3.65;;;15.00;66.40;;;;;;5053165;28;20017;-76
2022/06/15 04:38:32;;;;;;;6.28;3.63;;;15.00;66.50;;;;;;5053033;28;20036;-77
2022/06/15 04:40:58;;;;;;;8.65;3.58;;;15.00;66.50;;;;;;5053127;28;20027;-79
2022/06/15 04:43:24;;;;;;;5.53;3.33;;;15.10;66.20;;;;;;5052854;28;20620;-75
2022/06/15 04:45:50;;;;;;;7.22;3.85;;;15.10;66.20;;;;;;5052781;28;20028;-79
2022/06/15 04:48:15;;;;;;;7.72;3.92;;;15.10;66.40;;;;;;5052934;28;20118;-78
2022/06/15 04:50:41;;;;;;;8.88;4.10;;;15.20;66.30;;;;;;5052857;28;20513;-77
2022/06/15 04:53:07;;;;;;;8.10;3.60;;;15.20;66.30;;;;;;5052936;28;20024;-77
2022/06/15 04:55:33;;;;;;;5.25;3.60;;;15.30;66.10;;;;;;5035038;28;20578;-77
2022/06/15 04:57:59;;;;;;;11.75;4.18;;;15.40;65.80;;;;;;5052816;28;20036;-78
2022/06/15 05:00:28;;;;;;;9.27;3.70;;;15.40;65.80;;;;;;5053001;28;20040;-79
2022/06/15 05:02:54;;;;;;;9.18;3.72;;;15.50;65.80;;;;;;5052831;28;20059;-78
2022/06/15 05:05:20;;;;;;;6.80;3.38;;;15.60;65.20;;;;;;5051993;28;20104;-77
2022/06/15 05:07:46;;;;;;;6.72;3.22;;;15.70;64.90;;;;;;5038436;28;20018;-78
2022/06/15 05:10:16;;;;;;;8.98;3.45;;;15.90;64.60;;;;;;5056768;28;20435;-79
2022/06/15 05:12:42;;;;;;;10.35;3.92;;;16.00;64.20;;;;;;5052825;28;20024;-78
2022/06/15 05:15:08;;;;;;;5.55;2.97;;;16.10;63.90;;;;;;5052707;28;20382;-76
2022/06/15 05:17:34;;;;;;;7.43;3.08;;;16.30;63.50;;;;;;5052660;28;20033;-77
2022/06/15 05:19:59;;;;;;;9.20;3.35;;;16.50;63.20;;;;;;5052670;28;20044;-78
2022/06/15 05:22:25;;;;;;;7.47;3.50;;;16.70;62.70;;;;;;5052613;28;20025;-77
2022/06/15 05:24:50;;;;;;;10.45;3.47;;;16.90;62.30;;;;;;5052507;28;20032;-78
2022/06/15 05:27:16;;;;;;;6.57;3.30;;;17.10;61.40;;;;;;5052408;28;20710;-79
2022/06/15 05:29:41;;;;;;;7.70;3.67;;;17.10;61.20;;;;;;5052540;28;20029;-78
2022/06/15 05:32:08;;;;;;;8.23;3.70;;;17.20;61.30;;;;;;5052346;28;20028;-78
2022/06/15 05:34:34;;;;;;;8.27;3.85;;;17.30;61.20;;;;;;5052489;28;20013;-78
2022/06/15 05:37:00;;;;;;;9.13;3.55;;;17.30;61.20;;;;;;5034372;28;20108;-76
2022/06/15 05:39:26;;;;;;;9.55;3.83;;;17.40;61.30;;;;;;5052276;28;20486;-78
2022/06/15 05:41:51;;;;;;;8.43;3.95;;;17.50;61.20;;;;;;5052288;28;20025;-76
2022/06/15 05:46:56;;;;;;;7.13;4.07;;;17.80;60.30;;;;;;5052326;28;20032;-79
2022/06/15 05:49:22;;;;;;;8.25;3.60;;;17.80;59.60;;;;;;5051931;28;20088;-79
2022/06/15 05:51:48;;;;;;;5.68;3.13;;;17.90;58.50;;;;;;5051831;28;20489;-79
2022/06/15 05:54:13;;;;;;;9.48;3.83;;;18.00;57.80;;;;;;5033758;28;20053;-79
2022/06/15 05:56:39;;;;;;;7.45;3.83;;;18.20;57.10;;;;;;5051542;28;20033;-79
2022/06/15 05:59:05;;;;;;;4.00;2.72;;;18.20;57.10;;;;;;5051707;28;20442;-79
2022/06/15 06:01:33;;;;;;;8.77;4.10;;;18.40;56.60;;;;;;5051380;28;20021;-77
2022/06/15 06:03:59;;;;;;;7.70;4.90;;;18.60;55.60;;;;;;5051951;28;20028;-79
2022/06/15 06:06:26;;;;;;;8.52;6.03;;;18.70;55.20;;;;;;5051923;28;20021;-78
2022/06/15 06:08:52;;;;;;;8.85;4.13;;;18.90;54.60;;;;;;5051807;28;20087;-78
2022/06/15 06:11:19;;;;;;;7.80;3.50;;;19.00;54.00;;;;;;5051940;28;20029;-77
2022/06/15 06:13:44;;;;;;;6.57;4.05;;;19.20;53.60;;;;;;5052034;28;20025;-78
2022/06/15 06:16:10;;;;;;;5.15;3.00;;;19.30;53.50;;;;;;5052774;28;20066;-78
2022/06/15 06:18:36;;;;;;;10.13;3.75;;;19.40;53.20;;;;;;5055009;28;20033;-79
2022/06/15 06:21:02;;;;;;;13.55;3.30;;;19.50;52.70;;;;;;5054940;28;20032;-79
2022/06/15 06:23:27;;;;;;;5.35;2.72;;;19.60;52.20;;;;;;5055124;28;20025;-79
2022/06/15 06:25:53;;;;;;;4.50;2.80;;;19.70;52.20;;;;;;5055245;28;20028;-81
2022/06/15 06:28:28;;;;;;;6.90;3.45;;;19.80;52.10;;;;;;5054711;28;20037;-79
2022/06/15 06:30:57;;;;;;;4.68;2.95;;;20.00;51.60;;;;;;5054934;28;20082;-77
2022/06/15 06:33:33;;;;;;;9.25;3.85;;;20.10;51.50;;;;;;5054827;28;20052;-78
2022/06/15 06:36:02;;;;;;;5.00;3.00;;;20.30;51.80;;;;;;5054642;28;20025;-77
2022/06/15 06:38:28;;;;;;;9.20;3.40;;;20.40;51.60;;;;;;5054546;28;20036;-79
2022/06/15 06:40:55;;;;;;;8.85;4.20;;;20.50;51.30;;;;;;5062467;28;20005;-75
2022/06/15 06:43:21;;;;;;;4.72;2.95;;;20.60;51.10;;;;;;5073381;28;20040;-80
2022/06/15 06:45:47;;;;;;;7.90;3.70;;;20.70;50.70;;;;;;5056361;28;20021;-80
2022/06/15 06:48:12;;;;;;;5.80;3.45;;;20.80;49.90;;;;;;5055189;28;20060;-79
2022/06/15 06:50:40;;;;;;;10.65;5.28;;;21.00;49.70;;;;;;5054817;28;20413;-79
2022/06/15 06:53:07;;;;;;;8.30;3.90;;;21.00;49.50;;;;;;5053968;28;20017;-77
2022/06/15 06:55:33;;;;;;;6.93;3.58;;;21.10;49.60;;;;;;5054305;28;20029;-75
2022/06/15 06:58:00;;;;;;;13.10;4.32;;;21.20;49.80;;;;;;5054314;28;20461;-80
2022/06/15 07:00:27;;;;;;;4.80;2.95;;;21.20;49.70;;;;;;5054388;28;20028;-78
2022/06/15 07:02:53;;;;;;;6.75;3.60;;;21.30;50.10;;;;;;5054177;28;20513;-76
2022/06/15 07:05:19;;;;;;;6.78;3.42;;;21.30;49.70;;;;;;5054121;28;20036;-80
2022/06/15 07:07:45;;;;;;;7.82;3.80;;;21.40;50.00;;;;;;5054226;28;20032;-76
2022/06/15 07:10:11;;;;;;;17.70;4.78;;;21.60;49.90;;;;;;5053977;28;20436;-79
2022/06/15 07:12:37;;;;;;;20.88;3.92;;;21.70;52.90;;;;;;5054232;28;20017;-78
2022/06/15 07:15:06;;;;;;;10.80;2.85;;;21.90;53.10;;;;;;5054069;28;20067;-77
2022/06/15 07:17:32;;;;;;;11.75;3.13;;;22.10;48.00;;;;;;5053857;28;20040;-78
2022/06/15 07:19:58;;;;;;;10.15;2.95;;;22.10;45.50;;;;;;5053785;28;20033;-77
2022/06/15 07:22:23;;;;;;;4.15;2.70;;;22.10;46.50;;;;;;5053512;28;20024;-76
2022/06/15 07:24:49;;;;;;;8.23;2.70;;;22.40;46.30;;;;;;5053822;28;20494;-78
2022/06/15 07:27:16;;;;;;;7.35;2.47;;;22.50;44.40;;;;;;5053133;28;20029;-76
2022/06/15 07:29:43;;;;;;;4.13;2.50;;;22.60;44.60;;;;;;5053555;28;20025;-77
2022/06/15 07:32:09;;;;;;;6.15;2.55;;;22.80;43.70;;;;;;5053412;28;20482;-77
2022/06/15 07:34:35;;;;;;;5.40;2.78;;;22.90;43.60;;;;;;5053559;28;20025;-77
2022/06/15 07:37:00;;;;;;;4.55;2.28;;;23.10;42.90;;;;;;5053129;28;20033;-77
2022/06/15 07:39:30;;;;;;;5.20;2.60;;;23.20;41.60;;;;;;5053424;28;20482;-77
2022/06/15 07:41:57;;;;;;;4.70;2.25;;;23.30;42.20;;;;;;5053416;28;20063;-78
2022/06/15 07:44:24;;;;;;;6.35;2.75;;;23.50;42.30;;;;;;5053311;28;20021;-77
2022/06/15 07:49:54;;;;;;;6.10;2.50;;;23.60;41.60;;;;;;5053154;28;20101;-78
2022/06/15 07:49:54;;;;;;;6.90;2.60;;;23.70;41.80;;;;;;5052899;28;20060;-78
2022/06/15 07:52:21;;;;;;;5.25;2.33;;;23.70;41.50;;;;;;5053289;28;20154;-78
2022/06/15 07:54:47;;;;;;;12.20;3.00;;;23.80;41.50;;;;;;5035067;28;20022;-78
2022/06/15 07:57:13;;;;;;;7.18;2.42;;;23.90;41.50;;;;;;5053075;28;20028;-78
2022/06/15 07:59:38;;;;;;;5.32;2.20;;;24.00;41.30;;;;;;5053088;28;20060;-77
2022/06/15 08:02:04;;;;;;;6.40;2.35;;;24.00;41.60;;;;;;5053624;28;20017;-77
2022/06/15 08:04:29;;;;;;;7.53;2.90;;;24.20;42.80;;;;;;5038221;28;20029;-78
2022/06/15 08:06:55;;;;;;;7.10;2.63;;;24.30;41.60;;;;;;5053005;28;20111;-77
2022/06/15 08:09:20;;;;;;;4.65;2.33;;;24.20;40.20;;;;;;5052658;28;20013;-78
2022/06/15 08:14:33;;;;;;;3.50;2.28;;;23.90;40.30;;;;;;5052833;28;20075;-78
2022/06/15 08:17:00;;;;;;;9.45;2.80;;;24.00;38.70;;;;;;5049461;28;20041;-77
2022/06/15 08:19:26;;;;;;;5.90;2.08;;;23.90;38.80;;;;;;5051588;28;20083;-78
2022/06/15 08:21:52;;;;;;;3.28;2.10;;;24.00;40.00;;;;;;5051819;28;20024;-79
2022/06/15 08:24:21;;;;;;;5.82;2.20;;;24.10;39.80;;;;;;5051581;28;20024;-76
2022/06/15 08:26:47;;;;;;;4.50;2.15;;;24.20;38.50;;;;;;5035163;28;20124;-77
2022/06/15 08:29:14;;;;;;;6.20;2.35;;;24.10;39.90;;;;;;5053095;28;20032;-77
2022/06/15 08:31:39;;;;;;;4.95;2.30;;;24.20;39.70;;;;;;5052830;28;20488;-77
2022/06/15 08:34:06;;;;;;;7.97;2.58;;;24.20;38.30;;;;;;5052463;28;20033;-77
2022/06/15 08:36:32;;;;;;;5.22;2.40;;;24.20;38.20;;;;;;5052708;28;20025;-77
2022/06/15 08:38:58;;;;;;;3.78;2.47;;;24.30;38.80;;;;;;5052092;28;20469;-77
2022/06/15 08:41:53;;;;;;;5.03;2.00;;;24.40;38.80;;;;;;5051804;28;20096;-78
2022/06/15 08:45:01;;;;;;;7.20;2.50;;;24.60;35.60;;;;;;5052810;28;20086;-77
2022/06/15 08:47:39;;;;;;;8.57;2.00;;;24.70;35.80;;;;;;5052440;28;20368;-77
2022/06/15 08:50:08;;;;;;;6.55;2.80;;;24.80;35.70;;;;;;5044872;28;20052;-77
2022/06/15 08:52:45;;;;;;;2.97;2.35;;;24.90;36.30;;;;;;5032762;28;20087;-77
2022/06/15 08:55:32;;;;;;;5.38;2.15;;;25.10;36.20;;;;;;5032934;28;20031;-78
2022/06/15 08:58:10;;;;;;;4.15;2.08;;;25.20;35.20;;;;;;5032921;28;20546;-78
2022/06/15 09:00:38;;;;;;;7.85;2.25;;;25.30;34.10;;;;;;5033521;28;20036;-78
2022/06/15 09:03:34;;;;;;;4.78;2.05;;;25.20;36.10;;;;;;5042638;28;20049;-77
2022/06/15 09:06:21;;;;;;;2.75;2.08;;;25.30;34.80;;;;;;5040231;28;20029;-78
2022/06/15 09:09:09;;;;;;;4.13;2.03;;;25.20;34.90;;;;;;5032624;28;20104;-78
2022/06/15 09:15:04;;;;;;;5.22;1.63;;;25.20;32.90;;;;;;5032374;28;20041;-78
2022/06/15 09:17:31;;;;;;;4.57;1.58;;;25.20;33.70;;;;;;5031954;28;20117;-77
2022/06/15 09:20:04;;;;;;;4.18;2.03;;;25.40;33.90;;;;;;5031627;28;20026;-76
2022/06/15 09:22:36;;;;;;;4.88;1.75;;;25.50;33.70;;;;;;5032404;28;20075;-77
2022/06/15 09:25:09;;;;;;;7.57;2.25;;;25.70;33.70;;;;;;5032448;28;20529;-77
2022/06/15 09:27:51;;;;;;;3.10;2.42;;;25.70;33.50;;;;;;5030117;28;20029;-77
2022/06/15 09:30:24;;;;;;;9.18;2.22;;;25.70;33.60;;;;;;5012283;28;20086;-77
2022/06/15 09:33:33;;;;;;;4.88;1.50;;;25.90;32.60;;;;;;5012621;28;20057;-78
2022/06/15 09:36:12;;;;;;;5.93;1.98;;;25.90;31.60;;;;;;4998431;28;20665;-78
2022/06/15 09:38:38;;;;;;;7.85;2.03;;;26.00;32.30;;;;;;5024587;28;20381;-77
2022/06/15 09:41:39;;;;;;;8.25;1.92;;;26.00;31.90;;;;;;5032193;28;20025;-77
2022/06/15 09:44:08;;;;;;;3.92;1.95;;;26.10;32.00;;;;;;5031270;28;20056;-77
2022/06/15 09:46:55;;;;;;;7.53;2.33;;;26.20;31.40;;;;;;5032075;28;20049;-77
2022/06/15 09:49:42;;;;;;;4.90;2.03;;;26.30;31.50;;;;;;5033544;28;20021;-77
2022/06/15 09:52:26;;;;;;;2.67;1.58;;;26.20;31.00;;;;;;5051506;28;20033;-78
2022/06/15 09:55:10;;;;;;;3.53;1.88;;;26.10;31.00;;;;;;5035913;28;20490;-78
2022/06/15 09:57:37;;;;;;;3.60;1.90;;;26.20;30.80;;;;;;5035615;28;20052;-78
2022/06/15 10:00:05;;;;;;;5.18;2.00;;;26.40;29.70;;;;;;5035769;28;20030;-78
2022/06/15 10:02:35;;;;;;;5.35;1.95;;;26.60;29.00;;;;;;5034209;28;20371;-77
2022/06/15 10:05:04;;;;;;;5.78;1.90;;;26.60;28.80;;;;;;5035678;28;20053;-77
2022/06/15 10:07:43;;;;;;;7.05;2.13;;;26.70;30.00;;;;;;5018096;28;20029;-79
2022/06/15 10:10:28;;;;;;;5.68;2.20;;;26.60;30.40;;;;;;5038121;28;20385;-76
2022/06/15 10:13:02;;;;;;;3.28;1.80;;;26.50;31.30;;;;;;5017746;28;20059;-76
2022/06/15 10:15:40;;;;;;;5.72;2.47;;;26.50;30.60;;;;;;5035469;28;20482;-76
2022/06/15 10:18:43;;;;;;;4.50;1.90;;;26.60;30.20;;;;;;5035124;28;20037;-80
2022/06/15 10:21:19;;;;;;;4.13;1.80;;;26.70;30.20;;;;;;5035438;28;20025;-79
2022/06/15 10:24:16;;;;;;;5.15;1.65;;;26.70;29.60;;;;;;5035440;28;20025;-78
2022/06/15 10:26:52;;;;;;;2.15;1.55;;;26.90;29.90;;;;;;5024457;28;20040;-79
2022/06/15 10:29:22;;;;;;;5.18;2.00;;;27.00;29.20;;;;;;5035635;28;20100;-79
2022/06/15 10:32:05;;;;;;;3.45;2.15;;;27.10;27.80;;;;;;5039518;28;20080;-77
2022/06/15 10:34:34;;;;;;;5.60;1.80;;;27.10;28.10;;;;;;5049091;28;20100;-80
2022/06/15 10:37:06;;;;;;;3.50;1.52;;;27.20;28.90;;;;;;5017649;28;20484;-78
2022/06/15 10:39:37;;;;;;;3.35;1.45;;;27.20;28.20;;;;;;5035232;28;20382;-79
2022/06/15 10:42:18;;;;;;;4.13;2.20;;;27.30;26.70;;;;;;5035148;28;20018;-80
2022/06/15 10:45:08;;;;;;;4.28;1.90;;;27.40;27.30;;;;;;5035190;28;20033;-78
2022/06/15 10:47:34;;;;;;;3.28;1.58;;;27.50;28.10;;;;;;5034950;28;20022;-79
2022/06/15 10:50:06;;;;;;;4.07;1.60;;;27.50;26.40;;;;;;5034552;28;20050;-78
2022/06/15 10:52:42;;;;;;;3.55;1.60;;;27.40;26.50;;;;;;5034798;28;20040;-80
2022/06/15 11:04:09;;;;;;;5.63;1.80;;;27.80;25.30;;;;;;5034038;28;20394;-81
2022/06/15 11:06:43;;;;;;;3.95;1.30;;;28.00;25.90;;;;;;5034633;28;20025;-80
2022/06/15 11:09:29;;;;;;;5.07;1.40;;;28.20;21.00;;;;;;5034828;28;20029;-79
2022/06/15 11:11:56;;;;;;;2.38;1.40;;;28.40;21.50;;;;;;5034849;28;20066;-77
2022/06/15 11:14:27;;;;;;;3.42;1.15;;;28.50;19.50;;;;;;5034728;28;20036;-80
2022/06/15 11:19:51;;;;;;;4.60;1.52;;;28.60;19.90;;;;;;5034638;28;20448;-80
2022/06/15 11:22:19;;;;;;;2.58;1.60;;;28.90;21.10;;;;;;5034648;28;20112;-79
2022/06/15 11:25:00;;;;;;;1.95;1.10;;;29.00;25.00;;;;;;5035498;28;20025;-79
2022/06/15 11:27:35;;;;;;;1.58;1.02;;;29.20;21.20;;;;;;5053833;28;20005;-78
2022/06/15 11:30:16;;;;;;;3.15;1.17;;;29.50;21.70;;;;;;5042380;28;20022;-79
2022/06/15 11:32:48;;;;;;;2.72;1.20;;;29.70;19.10;;;;;;5036207;28;20056;-80
2022/06/15 11:35:13;;;;;;;3.72;1.83;;;29.90;18.00;;;;;;5034300;28;20425;-79
2022/06/15 11:37:45;;;;;;;6.15;1.17;;;30.00;19.20;;;;;;5016423;28;20033;-80
2022/06/15 11:40:46;;;;;;;4.15;1.10;;;29.90;15.30;;;;;;5034011;28;20024;-78
2022/06/15 11:43:35;;;;;;;7.80;1.58;;;29.70;15.70;;;;;;5034015;28;20026;-80
2022/06/15 11:46:43;;;;;;;5.07;1.40;;;29.40;17.10;;;;;;5033650;28;20382;-79
2022/06/15 11:49:12;;;;;;;3.10;1.05;;;29.50;16.60;;;;;;5016125;28;20021;-80
2022/06/15 11:52:04;;;;;;;6.70;1.17;;;29.40;15.30;;;;;;5033637;28;20371;-78
2022/06/15 11:54:56;;;;;;;2.95;1.08;;;29.40;16.80;;;;;;5015766;28;20454;-77
2022/06/15 11:57:27;;;;;;;1.63;1.15;;;29.90;15.30;;;;;;5033589;28;20029;-80
2022/06/15 11:59:56;;;;;;;2.28;1.42;;;30.20;14.40;;;;;;5033503;28;20057;-79
2022/06/15 12:02:49;;;;;;;3.47;1.30;;;30.30;14.90;;;;;;5033000;28;20025;-80
2022/06/15 12:05:52;;;;;;;1.92;1.25;;;30.50;14.50;;;;;;5033403;28;20041;-80
2022/06/15 12:08:21;;;;;;;2.47;1.05;;;30.30;14.60;;;;;;5033228;28;20025;-81
2022/06/15 12:10:52;;;;;;;2.95;1.20;;;30.00;14.10;;;;;;5033525;28;20026;-81
2022/06/15 12:13:44;;;;;;;1.77;1.20;;;30.10;14.40;;;;;;5033353;28;20064;-77
2022/06/15 12:16:38;;;;;;;3.55;1.10;;;30.10;14.70;;;;;;5032900;28;20050;-76
2022/06/15 12:19:26;;;;;;;2.20;1.23;;;30.20;13.90;;;;;;5033031;28;20065;-76
2022/06/15 12:22:05;;;;;;;1.38;0.82;;;30.30;14.10;;;;;;5033040;28;20381;-76
2022/06/15 12:24:34;;;;;;;3.22;1.00;;;30.40;13.60;;;;;;5033253;28;20026;-76
2022/06/15 12:27:06;;;;;;;2.00;1.00;;;30.50;13.70;;;;;;5033074;28;20031;-77
2022/06/15 12:29:37;;;;;;;5.20;1.10;;;30.80;12.40;;;;;;5032794;28;20109;-76
2022/06/15 12:32:51;;;;;;;2.80;0.80;;;30.90;11.40;;;;;;5032916;28;20021;-78
2022/06/15 12:35:10;;;;;;;4.93;1.17;;;30.90;9.40;;;;;;5024174;28;20037;-75
2022/06/15 12:38:16;;;;;;;3.20;0.77;;;30.70;9.20;;;;;;5032759;28;20073;-77
2022/06/15 12:40:52;;;;;;;3.03;0.90;;;30.60;9.90;;;;;;5032680;28;20467;-77
2022/06/15 12:43:52;;;;;;;1.70;0.90;;;30.60;10.30;;;;;;5032829;28;20026;-78
2022/06/15 12:46:18;;;;;;;4.30;1.17;;;30.70;10.80;;;;;;4999462;28;20065;-78
2022/06/15 12:49:01;;;;;;;2.00;0.90;;;30.70;11.40;;;;;;5032667;28;20453;-75
2022/06/15 12:52:11;;;;;;;4.00;1.00;;;31.00;12.40;;;;;;5032449;28;20092;-76
2022/06/15 12:55:01;;;;;;;2.85;1.00;;;31.20;11.50;;;;;;5032276;28;20026;-76
2022/06/15 12:57:51;;;;;;;3.58;1.02;;;31.10;11.70;;;;;;5032731;28;20421;-77
2022/06/15 13:00:25;;;;;;;2.28;1.10;;;31.20;13.00;;;;;;5032866;28;20026;-76
2022/06/15 13:03:28;;;;;;;5.88;1.17;;;31.10;12.20;;;;;;5045638;28;20558;-76
2022/06/15 13:06:21;;;;;;;5.50;1.00;;;31.10;10.80;;;;;;5032948;28;20021;-76
2022/06/15 13:08:59;;;;;;;4.70;1.05;;;31.20;11.50;;;;;;5032479;28;20076;-76
2022/06/15 13:11:25;;;;;;;4.18;1.00;;;31.10;10.40;;;;;;5032670;28;20029;-77
2022/06/15 13:13:53;;;;;;;3.85;1.20;;;31.20;10.50;;;;;;5032155;28;20169;-75
2022/06/15 13:16:40;;;;;;;1.92;0.80;;;31.30;11.90;;;;;;5032321;28;20196;-77
2022/06/15 13:19:25;;;;;;;4.97;0.90;;;31.20;10.90;;;;;;5032407;28;20033;-79
2022/06/15 13:22:06;;;;;;;7.22;1.20;;;31.30;10.50;;;;;;5032482;28;20173;-76
2022/06/15 13:25:06;;;;;;;3.85;1.20;;;31.40;10.20;;;;;;5032591;28;20490;-75
2022/06/15 13:27:43;;;;;;;5.95;1.70;;;31.50;9.80;;;;;;5034731;28;20378;-77
2022/06/15 13:30:41;;;;;;;5.03;1.10;;;31.50;11.00;;;;;;5036300;28;20104;-75
2022/06/15 13:33:11;;;;;;;1.05;0.93;;;31.60;9.90;;;;;;5014471;28;20554;-76
2022/06/15 13:35:42;;;;;;;4.28;1.27;;;31.70;9.90;;;;;;5036138;28;20044;-75
2022/06/15 13:38:19;;;;;;;3.80;1.02;;;31.80;9.70;;;;;;5036604;28;20038;-78
2022/06/15 13:40:54;;;;;;;2.40;1.20;;;31.70;10.30;;;;;;5018692;28;20017;-76